Time;durP1;ratioP1;P1;durP2;ratioP2;P2;SDS_P1;SDS_P2;PMS_P1;PMS_P2;Temp;Humidity;BMP_temperature;BMP_pressure;BME280_temperature;BME280_humidity;BME280_pressure;Samples;Min_cycle;Max_cycle;Signal;HPM_P1;HPM_P2
2021/03/12 00:00:47;;;;;;;33.30;17.47;;;4.20;99.90;;;;;;5145364;28;20204;-77
2021/03/12 00:03:21;;;;;;;33.77;17.60;;;4.20;99.90;;;;;;5146502;28;20203;-77
2021/03/12 00:05:58;;;;;;;33.20;16.10;;;4.10;99.90;;;;;;5146710;28;20290;-76
2021/03/12 00:08:34;;;;;;;28.20;16.47;;;4.20;99.90;;;;;;5146536;28;20219;-76
2021/03/12 00:11:07;;;;;;;27.17;14.87;;;4.20;99.90;;;;;;5146254;28;20227;-76
2021/03/12 00:13:39;;;;;;;29.33;15.13;;;4.20;99.90;;;;;;5145787;28;20199;-75
2021/03/12 00:16:11;;;;;;;31.73;15.93;;;4.20;99.90;;;;;;5161123;28;20218;-75
2021/03/12 00:18:44;;;;;;;27.13;14.80;;;4.20;99.90;;;;;;5146452;28;20617;-77
2021/03/12 00:21:30;;;;;;;28.13;14.93;;;4.30;99.90;;;;;;5104328;29;20614;-73
2021/03/12 00:24:02;;;;;;;24.10;14.20;;;4.30;99.90;;;;;;5104287;29;20247;-77
2021/03/12 00:26:34;;;;;;;27.47;14.93;;;4.30;99.90;;;;;;5104519;29;20209;-75
2021/03/12 00:29:05;;;;;;;25.40;13.53;;;4.30;99.90;;;;;;5104231;29;20200;-75
2021/03/12 00:31:37;;;;;;;24.47;12.97;;;4.30;99.90;;;;;;5104002;28;20316;-76
2021/03/12 00:38:04;;;;;;;19.97;10.77;;;4.30;99.90;;;;;;5104161;29;20599;-75
2021/03/12 00:40:52;;;;;;;21.80;10.60;;;4.30;99.90;;;;;;5104097;29;20198;-77
2021/03/12 00:43:24;;;;;;;21.40;10.37;;;4.20;99.90;;;;;;5104141;29;20204;-74
2021/03/12 00:45:58;;;;;;;23.13;10.43;;;4.30;99.90;;;;;;5104253;29;20209;-75
2021/03/12 00:48:31;;;;;;;18.10;10.07;;;4.20;99.90;;;;;;5104268;29;20232;-77
2021/03/12 00:54:57;;;;;;;17.53;9.93;;;4.20;99.90;;;;;;5104297;29;20346;-75
2021/03/12 00:57:28;;;;;;;18.33;9.20;;;4.20;99.90;;;;;;5104578;28;20205;-73
2021/03/12 00:59:59;;;;;;;21.13;9.13;;;4.20;99.90;;;;;;5145881;28;20192;-76
2021/03/12 01:02:31;;;;;;;15.13;9.27;;;4.20;99.90;;;;;;5145818;28;20192;-72
2021/03/12 01:05:05;;;;;;;16.23;8.47;;;4.20;99.90;;;;;;5145950;28;20201;-75
2021/03/12 01:07:37;;;;;;;14.80;7.37;;;4.10;99.90;;;;;;5143604;28;20196;-75
2021/03/12 01:10:09;;;;;;;16.63;7.33;;;4.10;99.90;;;;;;5145532;28;20192;-75
2021/03/12 01:12:41;;;;;;;15.43;7.17;;;4.10;99.90;;;;;;5144273;28;20197;-75
2021/03/12 01:15:16;;;;;;;13.40;6.73;;;4.20;99.90;;;;;;5145539;28;20292;-77
2021/03/12 01:17:48;;;;;;;18.27;6.23;;;4.10;99.90;;;;;;5145109;28;20206;-75
2021/03/12 01:20:22;;;;;;;13.87;5.37;;;4.10;99.90;;;;;;5145395;28;20195;-74
2021/03/12 01:22:55;;;;;;;11.77;5.13;;;4.20;99.90;;;;;;5145394;28;20210;-76
2021/03/12 01:25:30;;;;;;;12.50;5.63;;;4.20;99.90;;;;;;5147097;28;20193;-75
2021/03/12 01:28:01;;;;;;;13.63;5.53;;;4.20;99.90;;;;;;5149438;28;20559;-76
2021/03/12 01:30:39;;;;;;;18.20;5.40;;;4.20;99.90;;;;;;5149499;28;20589;-75
2021/03/12 01:33:11;;;;;;;14.57;5.43;;;4.20;99.90;;;;;;5149157;28;20219;-75
2021/03/12 01:35:43;;;;;;;12.87;4.83;;;4.20;99.90;;;;;;5148216;28;20193;-76
2021/03/12 01:38:15;;;;;;;13.03;4.73;;;4.20;99.90;;;;;;5148832;28;20240;-76
2021/03/12 01:40:48;;;;;;;11.97;4.83;;;4.20;99.90;;;;;;5151824;28;20216;-75
2021/03/12 01:43:20;;;;;;;11.10;4.60;;;4.20;99.90;;;;;;5151032;28;20188;-73
2021/03/12 01:45:52;;;;;;;14.20;5.13;;;4.20;99.90;;;;;;5148331;28;20661;-73
2021/03/12 01:48:25;;;;;;;10.33;4.57;;;4.20;99.90;;;;;;5150052;28;20291;-74
2021/03/12 01:51:04;;;;;;;14.77;4.73;;;4.20;99.90;;;;;;5149008;28;20216;-73
2021/03/12 01:53:36;;;;;;;14.93;4.37;;;4.20;99.90;;;;;;5148917;28;20203;-73
2021/03/12 01:56:08;;;;;;;18.37;5.47;;;4.20;99.90;;;;;;5149119;28;20188;-74
2021/03/12 01:58:40;;;;;;;13.27;4.40;;;4.20;99.90;;;;;;5149066;28;20188;-73
2021/03/12 02:01:12;;;;;;;9.30;4.10;;;4.20;99.90;;;;;;5148698;28;20196;-74
2021/03/12 02:03:43;;;;;;;11.10;3.73;;;4.20;99.90;;;;;;5148897;28;20591;-72
2021/03/12 02:06:15;;;;;;;11.50;3.53;;;4.20;99.90;;;;;;5148768;28;20613;-72
2021/03/12 02:08:47;;;;;;;12.53;3.93;;;4.20;99.90;;;;;;5148817;28;20542;-72
2021/03/12 02:11:20;;;;;;;11.83;3.40;;;4.20;99.90;;;;;;5148428;28;20216;-72
2021/03/12 02:14:01;;;;;;;11.60;3.40;;;4.20;99.90;;;;;;5148674;28;20192;-74
2021/03/12 02:16:38;;;;;;;11.20;3.70;;;4.20;99.90;;;;;;5148381;28;20199;-73
2021/03/12 02:23:30;;;;;;;10.23;2.97;;;4.10;99.90;;;;;;5148419;28;20203;-72
2021/03/12 02:26:10;;;;;;;12.60;3.27;;;4.10;99.90;;;;;;5148635;28;20243;-71
2021/03/12 02:28:42;;;;;;;9.60;3.43;;;4.10;99.90;;;;;;5148165;28;20255;-73
2021/03/12 02:31:14;;;;;;;12.30;4.10;;;4.10;99.90;;;;;;5146862;28;20231;-72
2021/03/12 02:33:49;;;;;;;13.17;3.80;;;4.10;99.90;;;;;;5148407;28;20223;-72
2021/03/12 02:40:20;;;;;;;9.03;3.63;;;4.10;99.90;;;;;;5142878;28;20275;-74
2021/03/12 02:42:52;;;;;;;11.43;3.50;;;4.00;99.90;;;;;;5148148;28;20534;-72
2021/03/12 02:45:24;;;;;;;12.67;4.40;;;4.00;99.90;;;;;;5148255;28;20204;-73
2021/03/12 02:47:56;;;;;;;13.47;4.10;;;4.00;99.90;;;;;;5147740;28;20200;-73
2021/03/12 02:54:23;;;;;;;11.33;3.67;;;4.00;99.90;;;;;;5147793;28;20182;-72
2021/03/12 02:56:55;;;;;;;12.63;3.43;;;4.00;99.90;;;;;;5147904;28;20206;-74
2021/03/12 02:59:27;;;;;;;10.90;3.60;;;4.00;99.90;;;;;;5147865;28;20193;-72
2021/03/12 03:01:59;;;;;;;11.33;3.40;;;3.90;99.90;;;;;;5147862;28;20204;-73
2021/03/12 03:04:33;;;;;;;10.77;2.93;;;3.90;99.90;;;;;;5147638;28;20310;-72
2021/03/12 03:11:03;;;;;;;9.97;3.67;;;3.80;99.90;;;;;;5147395;28;20230;-72
2021/03/12 03:13:36;;;;;;;13.87;3.50;;;3.80;99.90;;;;;;5147736;28;20203;-73
2021/03/12 03:16:13;;;;;;;13.17;3.03;;;3.80;99.90;;;;;;5147611;28;20564;-72
2021/03/12 03:18:46;;;;;;;10.20;3.50;;;3.80;99.90;;;;;;5147205;28;20247;-72
2021/03/12 03:21:19;;;;;;;12.77;3.17;;;3.80;99.90;;;;;;5147044;28;20193;-73
2021/03/12 03:23:51;;;;;;;10.80;3.87;;;3.80;99.90;;;;;;5147002;28;20196;-71
2021/03/12 03:26:22;;;;;;;9.30;3.33;;;3.90;99.90;;;;;;5147328;28;20192;-72
2021/03/12 03:28:54;;;;;;;10.00;2.93;;;3.90;99.90;;;;;;5146951;28;20197;-72
2021/03/12 03:31:26;;;;;;;9.37;3.60;;;3.90;99.90;;;;;;5147184;28;20224;-72
2021/03/12 03:33:58;;;;;;;7.23;3.40;;;3.90;99.90;;;;;;5146878;28;20666;-73
2021/03/12 03:36:29;;;;;;;10.63;3.53;;;3.90;99.90;;;;;;5147167;28;20207;-72
2021/03/12 03:39:01;;;;;;;9.50;3.13;;;4.00;99.90;;;;;;5147077;28;20247;-73
2021/03/12 03:41:33;;;;;;;13.70;3.47;;;4.00;99.90;;;;;;5144138;28;20196;-73
2021/03/12 03:44:27;;;;;;;10.37;2.60;;;4.00;99.90;;;;;;5146610;28;20283;-73
2021/03/12 03:47:01;;;;;;;14.53;3.70;;;4.00;99.90;;;;;;5146755;28;20631;-73
2021/03/12 03:49:38;;;;;;;8.50;3.00;;;4.00;99.90;;;;;;5146467;28;20223;-73
2021/03/12 03:52:10;;;;;;;10.57;3.00;;;4.00;99.90;;;;;;5146721;28;20220;-73
2021/03/12 03:54:42;;;;;;;8.47;3.07;;;4.00;99.90;;;;;;5146793;28;20204;-73
2021/03/12 03:57:15;;;;;;;12.87;3.63;;;4.00;99.90;;;;;;5146740;28;20206;-73
2021/03/12 03:59:48;;;;;;;9.00;3.33;;;4.00;99.90;;;;;;5146459;28;20189;-73
2021/03/12 04:02:20;;;;;;;9.50;2.80;;;4.00;99.90;;;;;;5147389;28;20542;-73
2021/03/12 04:04:53;;;;;;;13.00;3.40;;;4.00;99.90;;;;;;5146685;28;20255;-73
2021/03/12 04:07:43;;;;;;;7.90;2.70;;;4.00;99.90;;;;;;5146383;28;20655;-74
2021/03/12 04:10:15;;;;;;;9.43;3.57;;;4.00;99.90;;;;;;5146611;28;20196;-73
2021/03/12 04:12:48;;;;;;;7.97;2.30;;;4.00;99.90;;;;;;5145321;28;20247;-72
2021/03/12 04:15:20;;;;;;;10.13;3.07;;;4.00;99.90;;;;;;5146499;28;20199;-73
2021/03/12 04:17:53;;;;;;;7.30;2.73;;;4.00;99.90;;;;;;5146875;28;20230;-72
2021/03/12 04:24:11;;;;;;;13.73;3.00;;;4.00;99.90;;;;;;5146949;28;20191;-73
2021/03/12 04:26:43;;;;;;;9.77;3.07;;;4.10;99.90;;;;;;5146263;28;20196;-75
2021/03/12 04:29:16;;;;;;;11.87;2.90;;;4.10;99.90;;;;;;5146227;28;20212;-75
2021/03/12 04:31:48;;;;;;;11.40;3.33;;;4.10;99.90;;;;;;5146015;28;20227;-75
2021/03/12 04:34:19;;;;;;;10.20;3.23;;;4.10;99.90;;;;;;5146197;28;20192;-73
2021/03/12 04:40:37;;;;;;;14.03;3.33;;;4.10;99.90;;;;;;5141103;28;20306;-75
2021/03/12 04:43:09;;;;;;;10.30;3.20;;;4.10;99.90;;;;;;5146248;28;20204;-75
2021/03/12 04:45:42;;;;;;;9.70;3.27;;;4.10;99.90;;;;;;5145910;28;20195;-74
2021/03/12 04:48:15;;;;;;;12.70;3.27;;;4.10;99.90;;;;;;5146106;28;20200;-76
2021/03/12 04:50:48;;;;;;;12.03;3.37;;;4.10;99.90;;;;;;5146300;28;20275;-75
2021/03/12 04:53:20;;;;;;;12.33;3.27;;;4.20;99.90;;;;;;5146176;28;20215;-75
2021/03/12 04:55:52;;;;;;;10.67;3.57;;;4.20;99.90;;;;;;5145857;28;20199;-76
2021/03/12 04:58:24;;;;;;;16.03;4.13;;;4.20;99.90;;;;;;5145782;28;20208;-76
2021/03/12 05:00:56;;;;;;;16.63;3.93;;;4.10;99.90;;;;;;5149729;28;20211;-74
2021/03/12 05:03:29;;;;;;;12.43;3.60;;;4.10;99.90;;;;;;5149592;28;20196;-75
2021/03/12 05:06:01;;;;;;;15.23;3.83;;;4.10;99.90;;;;;;5149546;28;20577;-75
2021/03/12 05:08:34;;;;;;;14.30;3.63;;;4.10;99.90;;;;;;5149989;28;20192;-75
2021/03/12 05:11:08;;;;;;;8.87;3.30;;;4.10;99.90;;;;;;5149790;28;20671;-76
2021/03/12 05:13:39;;;;;;;18.00;4.17;;;4.10;99.90;;;;;;5164770;28;20563;-75
2021/03/12 05:16:10;;;;;;;12.50;3.50;;;4.10;99.90;;;;;;5149700;28;20199;-73
2021/03/12 05:18:42;;;;;;;15.60;3.77;;;4.10;99.90;;;;;;5149379;28;20207;-76
2021/03/12 05:21:14;;;;;;;13.17;4.50;;;4.10;99.90;;;;;;5149349;28;20196;-74
2021/03/12 05:23:46;;;;;;;12.63;3.47;;;4.10;99.90;;;;;;5149338;28;20192;-74
2021/03/12 05:26:17;;;;;;;13.70;3.93;;;4.10;99.90;;;;;;5148031;28;20197;-74
2021/03/12 05:28:48;;;;;;;11.33;3.60;;;4.10;99.90;;;;;;5149524;28;20192;-75
2021/03/12 05:31:23;;;;;;;16.23;3.70;;;4.10;99.90;;;;;;5149166;28;20227;-75
2021/03/12 05:33:55;;;;;;;11.70;4.00;;;4.10;99.90;;;;;;5149414;28;20242;-74
2021/03/12 05:36:26;;;;;;;14.23;3.90;;;4.10;99.90;;;;;;5149469;28;20208;-75
2021/03/12 05:38:57;;;;;;;9.63;3.67;;;4.10;99.90;;;;;;5148826;28;20204;-73
2021/03/12 05:41:29;;;;;;;10.23;4.10;;;4.10;99.90;;;;;;5148117;28;20197;-72
2021/03/12 05:44:03;;;;;;;12.60;4.07;;;4.20;99.90;;;;;;5149212;28;20513;-74
2021/03/12 05:46:35;;;;;;;13.83;3.93;;;4.20;99.90;;;;;;5148838;28;20652;-73
2021/03/12 05:49:09;;;;;;;16.93;5.83;;;4.20;99.90;;;;;;5148865;28;20196;-73
2021/03/12 05:51:41;;;;;;;13.20;4.73;;;4.20;99.90;;;;;;5148566;28;20572;-75
2021/03/12 05:54:13;;;;;;;13.27;5.00;;;4.20;99.90;;;;;;5148708;28;20277;-73
2021/03/12 05:56:45;;;;;;;13.60;4.60;;;4.20;99.90;;;;;;5149999;28;20204;-73
2021/03/12 05:59:17;;;;;;;15.97;4.70;;;4.30;99.90;;;;;;5150654;28;20311;-71
2021/03/12 06:01:48;;;;;;;17.23;5.20;;;4.30;99.90;;;;;;5148602;28;20206;-76
2021/03/12 06:04:20;;;;;;;15.47;5.30;;;4.30;99.90;;;;;;5148742;28;20564;-75
2021/03/12 06:06:51;;;;;;;13.67;4.50;;;4.30;99.90;;;;;;5148607;28;20212;-73
2021/03/12 06:09:23;;;;;;;13.13;5.00;;;4.30;99.90;;;;;;5151658;28;20643;-74
2021/03/12 06:11:55;;;;;;;12.53;5.20;;;4.40;99.90;;;;;;5150220;28;20235;-75
2021/03/12 06:14:56;;;;;;;17.00;5.53;;;4.40;99.90;;;;;;5148709;28;20581;-74
2021/03/12 06:17:36;;;;;;;12.33;5.03;;;4.50;99.90;;;;;;5148778;28;20538;-73
2021/03/12 06:20:13;;;;;;;16.63;5.50;;;4.60;99.90;;;;;;5148870;28;20193;-74
2021/03/12 06:22:48;;;;;;;12.63;5.20;;;4.70;99.90;;;;;;5148526;28;20291;-73
2021/03/12 06:25:25;;;;;;;13.27;6.00;;;4.70;99.90;;;;;;5148419;28;20204;-74
2021/03/12 06:28:15;;;;;;;14.67;5.73;;;4.60;99.90;;;;;;5148136;28;20200;-71
2021/03/12 06:30:47;;;;;;;15.03;5.50;;;4.60;99.90;;;;;;5147895;28;20239;-72
2021/03/12 06:33:35;;;;;;;12.30;5.17;;;4.70;99.90;;;;;;5148155;28;20203;-73
2021/03/12 06:39:53;;;;;;;15.90;5.67;;;4.70;99.90;;;;;;5147722;28;20255;-73
2021/03/12 06:42:25;;;;;;;13.77;6.23;;;5.10;99.90;;;;;;5147783;28;20202;-74
2021/03/12 06:45:02;;;;;;;13.40;5.13;;;6.10;99.90;;;;;;5147733;28;20203;-72
2021/03/12 06:47:33;;;;;;;14.07;5.40;;;6.50;99.90;;;;;;5147753;28;20197;-73
2021/03/12 06:50:05;;;;;;;13.43;5.13;;;7.00;99.90;;;;;;5148029;28;20616;-74
2021/03/12 06:56:29;;;;;;;12.83;4.00;;;9.80;99.90;;;;;;5147739;28;20207;-71
2021/03/12 06:59:03;;;;;;;12.07;4.13;;;11.40;99.90;;;;;;5147711;28;20200;-75
2021/03/12 07:01:35;;;;;;;13.13;4.90;;;12.00;99.90;;;;;;5147607;28;20196;-74
2021/03/12 07:04:15;;;;;;;13.27;4.57;;;12.40;99.90;;;;;;5147974;28;20255;-73
2021/03/12 07:06:48;;;;;;;9.63;4.23;;;13.00;99.90;;;;;;5145410;28;20204;-71
2021/03/12 07:09:22;;;;;;;10.37;4.67;;;12.80;99.90;;;;;;5146994;28;20239;-72
2021/03/12 07:12:01;;;;;;;10.20;4.67;;;11.70;99.90;;;;;;5144689;28;20497;-72
2021/03/12 07:14:33;;;;;;;11.17;4.70;;;10.70;99.90;;;;;;5146731;28;20197;-72
2021/03/12 07:17:05;;;;;;;7.63;4.23;;;9.30;99.90;;;;;;5147253;28;20287;-73
2021/03/12 07:19:37;;;;;;;10.37;4.60;;;8.50;99.90;;;;;;5147669;28;20215;-71
2021/03/12 07:22:09;;;;;;;10.67;4.60;;;7.80;99.90;;;;;;5147523;28;20534;-70
2021/03/12 07:24:41;;;;;;;10.90;4.60;;;7.20;99.90;;;;;;5146823;28;20188;-71
2021/03/12 07:27:17;;;;;;;12.53;4.10;;;6.90;99.90;;;;;;5145832;28;20203;-72
2021/03/12 07:29:50;;;;;;;10.23;5.33;;;6.70;99.90;;;;;;5147347;28;20298;-72
2021/03/12 07:32:25;;;;;;;12.37;4.77;;;6.40;99.90;;;;;;5147066;28;20220;-71
2021/03/12 07:34:59;;;;;;;9.47;4.43;;;6.30;99.90;;;;;;5146837;28;20197;-72
2021/03/12 07:37:35;;;;;;;10.97;4.30;;;6.30;99.90;;;;;;5146811;28;20203;-71
2021/03/12 07:40:10;;;;;;;15.63;4.80;;;6.40;99.90;;;;;;5146794;28;20271;-72
2021/03/12 07:42:45;;;;;;;10.83;4.37;;;6.50;99.90;;;;;;5146542;28;20200;-72
2021/03/12 07:45:21;;;;;;;9.10;4.80;;;6.30;99.90;;;;;;5146438;28;20203;-71
2021/03/12 07:47:53;;;;;;;11.87;4.47;;;6.20;99.90;;;;;;5146528;28;20219;-71
2021/03/12 07:50:35;;;;;;;10.40;5.07;;;6.00;99.90;;;;;;5160227;28;20200;-71
2021/03/12 07:53:08;;;;;;;12.63;5.47;;;5.90;99.90;;;;;;5145625;28;20227;-72
2021/03/12 07:56:06;;;;;;;11.57;5.50;;;5.90;99.90;;;;;;5160419;28;20663;-72
2021/03/12 07:58:57;;;;;;;10.23;4.60;;;5.80;99.90;;;;;;5146072;28;20375;-73
2021/03/12 08:01:50;;;;;;;13.53;6.97;;;5.70;99.90;;;;;;5145848;28;20214;-71
2021/03/12 08:04:31;;;;;;;10.80;5.30;;;5.60;99.90;;;;;;5142688;28;20295;-72
2021/03/12 08:11:32;;;;;;;11.77;4.77;;;5.70;99.90;;;;;;5122832;28;20178;-71
2021/03/12 08:14:09;;;;;;;11.93;4.83;;;5.70;99.90;;;;;;5143800;28;20200;-71
2021/03/12 08:16:56;;;;;;;10.50;5.33;;;5.70;99.90;;;;;;5146409;28;20200;-70
2021/03/12 08:19:39;;;;;;;10.07;4.63;;;5.70;99.90;;;;;;5146002;28;20192;-70
2021/03/12 08:22:27;;;;;;;9.63;4.67;;;5.80;99.90;;;;;;5146302;28;20631;-70
2021/03/12 08:24:58;;;;;;;12.87;4.97;;;5.90;99.90;;;;;;5161053;28;20196;-69
2021/03/12 08:27:47;;;;;;;6.93;4.00;;;6.10;99.90;;;;;;5146631;28;20191;-72
2021/03/12 08:30:25;;;;;;;13.10;4.47;;;6.20;99.90;;;;;;5146423;28;20653;-70
2021/03/12 08:32:58;;;;;;;8.23;4.33;;;6.50;99.90;;;;;;5144267;28;20310;-70
2021/03/12 08:35:32;;;;;;;11.97;4.20;;;6.80;99.90;;;;;;5146048;28;20251;-70
2021/03/12 08:38:28;;;;;;;12.47;4.77;;;7.00;99.90;;;;;;5145652;28;20219;-72
2021/03/12 08:41:14;;;;;;;10.47;4.50;;;7.10;99.90;;;;;;5145761;28;20734;-71
2021/03/12 08:43:53;;;;;;;5.47;3.60;;;7.30;99.90;;;;;;5146291;28;20208;-69
2021/03/12 08:46:28;;;;;;;8.17;3.73;;;7.20;99.90;;;;;;5146049;28;20291;-72
2021/03/12 08:49:08;;;;;;;8.97;3.93;;;6.90;99.90;;;;;;5145126;28;20196;-72
2021/03/12 08:55:36;;;;;;;8.17;3.70;;;7.00;99.90;;;;;;5145788;28;20713;-72
2021/03/12 08:58:15;;;;;;;12.17;3.73;;;7.00;99.90;;;;;;5144679;28;20197;-72
2021/03/12 09:00:57;;;;;;;9.20;3.70;;;7.00;99.90;;;;;;5145881;28;20188;-71
2021/03/12 09:03:30;;;;;;;9.13;3.90;;;6.90;99.90;;;;;;5145976;28;20547;-71
2021/03/12 09:06:04;;;;;;;9.13;4.23;;;6.80;99.90;;;;;;5145696;28;20192;-70
2021/03/12 09:12:21;;;;;;;9.97;3.70;;;6.80;99.90;;;;;;5145516;28;20208;-72
2021/03/12 09:14:53;;;;;;;8.90;3.83;;;7.00;99.90;;;;;;5143964;28;20196;-71
2021/03/12 09:17:36;;;;;;;10.23;3.50;;;7.00;99.90;;;;;;5137937;28;20224;-72
2021/03/12 09:20:08;;;;;;;6.93;3.93;;;7.00;99.90;;;;;;5145603;28;20196;-71
2021/03/12 09:22:39;;;;;;;8.20;3.90;;;7.10;99.90;;;;;;5145358;28;20192;-73
2021/03/12 09:25:11;;;;;;;9.77;4.67;;;7.10;99.90;;;;;;5145789;28;20188;-72
2021/03/12 09:28:00;;;;;;;10.20;4.37;;;7.10;99.90;;;;;;5145662;28;20566;-71
2021/03/12 09:30:52;;;;;;;8.70;4.17;;;7.20;99.90;;;;;;5145438;28;20203;-72
2021/03/12 09:33:37;;;;;;;8.27;4.30;;;7.20;99.90;;;;;;5145677;28;20566;-70
2021/03/12 09:36:29;;;;;;;11.33;4.37;;;7.20;99.90;;;;;;5144617;28;20288;-71
2021/03/12 09:39:18;;;;;;;11.50;4.30;;;7.20;99.90;;;;;;5144966;28;20310;-72
2021/03/12 09:41:59;;;;;;;6.07;4.20;;;7.20;99.90;;;;;;5145286;28;20188;-72
2021/03/12 09:44:32;;;;;;;9.83;4.27;;;7.30;99.90;;;;;;5144429;28;20200;-73
2021/03/12 09:47:09;;;;;;;6.23;3.13;;;7.20;99.90;;;;;;5128260;28;20295;-75
2021/03/12 09:49:42;;;;;;;8.17;3.33;;;7.10;99.90;;;;;;5163735;28;20200;-72
2021/03/12 09:56:01;;;;;;;9.10;3.80;;;7.00;99.90;;;;;;5147690;28;20183;-73
2021/03/12 09:58:33;;;;;;;8.73;3.83;;;7.00;99.90;;;;;;5148864;28;20200;-73
2021/03/12 10:01:18;;;;;;;9.40;4.20;;;7.00;99.90;;;;;;5163468;28;20204;-72
2021/03/12 10:03:50;;;;;;;10.10;3.87;;;6.90;99.90;;;;;;5148732;28;20207;-72
2021/03/12 10:06:22;;;;;;;10.73;3.83;;;6.90;99.90;;;;;;5148378;28;20197;-73
2021/03/12 10:12:42;;;;;;;6.97;3.90;;;7.00;99.90;;;;;;5148515;28;20259;-72
2021/03/12 10:15:39;;;;;;;8.57;3.43;;;7.00;99.90;;;;;;5148615;28;20199;-72
2021/03/12 10:18:21;;;;;;;6.90;3.57;;;7.10;99.90;;;;;;5148335;28;20196;-72
2021/03/12 10:21:12;;;;;;;10.45;4.45;;;7.10;99.90;;;;;;5147561;28;20446;-72
2021/03/12 10:23:44;;;;;;;8.70;3.70;;;7.20;99.90;;;;;;5148384;28;20196;-70
2021/03/12 10:26:16;;;;;;;11.55;4.25;;;7.40;99.90;;;;;;5146794;28;20464;-72
2021/03/12 10:28:48;;;;;;;13.10;4.17;;;7.50;99.90;;;;;;5148144;28;20236;-71
2021/03/12 10:31:19;;;;;;;9.87;3.23;;;7.60;99.90;;;;;;5148145;28;20332;-70
2021/03/12 10:33:51;;;;;;;7.43;3.53;;;7.70;99.90;;;;;;5148404;28;20555;-72
2021/03/12 10:36:22;;;;;;;9.57;3.13;;;7.70;99.90;;;;;;5148109;28;20287;-71
2021/03/12 10:38:56;;;;;;;9.43;3.23;;;7.70;99.90;;;;;;5162132;28;20232;-69
2021/03/12 10:41:28;;;;;;;8.73;3.10;;;7.60;99.90;;;;;;5147657;28;20643;-70
2021/03/12 10:44:02;;;;;;;8.70;3.60;;;7.50;99.90;;;;;;5162217;28;20196;-69
2021/03/12 10:46:34;;;;;;;11.57;3.60;;;7.30;99.90;;;;;;5147125;28;20214;-70
2021/03/12 10:49:05;;;;;;;9.60;3.40;;;7.30;99.90;;;;;;5146487;28;20204;-72
2021/03/12 10:51:41;;;;;;;5.97;2.53;;;7.40;99.90;;;;;;5147158;28;20192;-72
2021/03/12 10:54:14;;;;;;;8.40;2.93;;;7.50;99.90;;;;;;5146764;28;20192;-72
2021/03/12 10:56:55;;;;;;;9.43;3.80;;;7.40;99.90;;;;;;5146436;28;20432;-69
2021/03/12 10:59:52;;;;;;;8.93;3.33;;;7.60;99.90;;;;;;5147490;28;20188;-68
2021/03/12 11:02:35;;;;;;;7.90;3.00;;;7.90;99.90;;;;;;5147581;28;20239;-69
2021/03/12 11:05:32;;;;;;;8.97;3.30;;;8.00;99.90;;;;;;5147449;28;20631;-69
2021/03/12 11:12:08;;;;;;;8.43;2.90;;;7.90;99.90;;;;;;5150233;28;20235;-69
2021/03/12 11:14:42;;;;;;;7.07;3.07;;;7.60;99.90;;;;;;5149243;28;20295;-72
2021/03/12 11:17:19;;;;;;;7.40;3.10;;;7.50;99.90;;;;;;5146315;28;20220;-71
2021/03/12 11:20:07;;;;;;;11.17;3.20;;;7.40;99.90;;;;;;5161600;28;20543;-70
2021/03/12 11:22:44;;;;;;;9.63;2.90;;;7.40;99.90;;;;;;5147415;28;20682;-68
2021/03/12 11:25:19;;;;;;;12.33;2.70;;;7.60;99.90;;;;;;5147133;28;20227;-71
2021/03/12 11:27:53;;;;;;;7.90;2.50;;;7.70;99.90;;;;;;5146620;28;20303;-68
2021/03/12 11:30:26;;;;;;;14.80;3.17;;;7.90;99.90;;;;;;5146701;28;20196;-74
2021/03/12 11:33:04;;;;;;;10.03;2.93;;;7.90;99.90;;;;;;5146907;28;20227;-71
2021/03/12 11:35:44;;;;;;;18.10;3.40;;;7.80;99.90;;;;;;5146330;28;20197;-68
2021/03/12 11:38:24;;;;;;;9.47;3.40;;;7.90;99.90;;;;;;5146492;28;20296;-69
2021/03/12 11:41:09;;;;;;;15.40;2.67;;;7.90;99.90;;;;;;5146074;28;20231;-69
2021/03/12 11:43:47;;;;;;;10.50;2.57;;;8.00;99.90;;;;;;5146527;28;20617;-71
2021/03/12 11:46:24;;;;;;;12.57;2.60;;;7.90;99.90;;;;;;5146623;28;20716;-72
2021/03/12 11:48:57;;;;;;;12.40;2.30;;;7.90;99.90;;;;;;5146457;28;20200;-77
2021/03/12 11:51:29;;;;;;;11.83;3.07;;;7.80;99.90;;;;;;5146290;28;20193;-74
2021/03/12 11:54:10;;;;;;;10.57;2.60;;;7.70;99.90;;;;;;5145842;28;20196;-74
2021/03/12 11:56:42;;;;;;;12.20;2.30;;;7.60;99.90;;;;;;5145840;28;20192;-71
2021/03/12 11:59:14;;;;;;;11.30;2.67;;;7.40;99.90;;;;;;5146222;28;20192;-74
2021/03/12 12:01:55;;;;;;;12.67;2.37;;;7.30;99.90;;;;;;5146246;28;20196;-73
2021/03/12 12:04:27;;;;;;;10.10;2.43;;;7.30;99.90;;;;;;5146274;28;20251;-74
2021/03/12 12:07:00;;;;;;;13.47;2.53;;;7.30;99.90;;;;;;5145293;28;20185;-72
2021/03/12 12:09:38;;;;;;;17.73;3.17;;;7.40;99.90;;;;;;5145322;28;20576;-72
2021/03/12 12:15:16;;;;;;;12.53;1.90;;;7.70;99.90;;;;;;5124129;28;20661;-72
2021/03/12 12:18:05;;;;;;;13.33;2.07;;;7.90;99.90;;;;;;5065049;29;20215;-72
2021/03/12 12:20:45;;;;;;;7.80;2.13;;;8.20;99.90;;;;;;5064934;29;20259;-72
2021/03/12 12:27:13;;;;;;;6.67;1.90;;;8.10;99.90;;;;;;5064984;29;20194;-73
2021/03/12 12:29:46;;;;;;;7.27;1.77;;;7.80;99.90;;;;;;5065065;29;20218;-72
2021/03/12 12:32:18;;;;;;;11.37;1.90;;;7.70;99.90;;;;;;5066023;29;20230;-73
2021/03/12 12:34:50;;;;;;;12.50;2.00;;;7.70;99.90;;;;;;5065103;29;20331;-73
2021/03/12 12:37:23;;;;;;;9.47;2.10;;;7.70;99.90;;;;;;5064821;29;20215;-72
2021/03/12 12:44:03;;;;;;;9.67;2.03;;;7.80;99.90;;;;;;5043823;29;20211;-71
2021/03/12 12:46:41;;;;;;;9.80;1.70;;;7.80;99.90;;;;;;5043743;29;20215;-72
2021/03/12 12:49:14;;;;;;;11.83;1.93;;;7.80;99.90;;;;;;5069385;29;20235;-71
2021/03/12 12:51:46;;;;;;;6.03;1.70;;;7.50;99.90;;;;;;5090841;29;20567;-70
2021/03/12 12:58:14;;;;;;;9.67;1.97;;;7.40;99.90;;;;;;5106076;29;20225;-71
2021/03/12 13:00:46;;;;;;;9.90;1.73;;;7.50;99.90;;;;;;5106022;29;20202;-70
2021/03/12 13:03:19;;;;;;;8.07;2.00;;;7.60;99.90;;;;;;5106133;29;20205;-72
2021/03/12 13:05:52;;;;;;;7.93;2.10;;;7.70;99.90;;;;;;5105997;29;20201;-75
2021/03/12 13:08:24;;;;;;;8.50;2.07;;;7.70;99.90;;;;;;5106162;29;20200;-74
2021/03/12 13:11:02;;;;;;;11.20;2.37;;;7.80;99.90;;;;;;5105911;29;20213;-71
2021/03/12 13:13:35;;;;;;;12.33;2.00;;;7.70;99.90;;;;;;5105910;29;20229;-78
2021/03/12 13:16:09;;;;;;;9.50;2.07;;;7.70;99.90;;;;;;5105897;29;20229;-74
2021/03/12 13:18:44;;;;;;;4.93;1.90;;;7.90;99.90;;;;;;5105817;29;20641;-73
2021/03/12 13:21:16;;;;;;;11.13;2.00;;;7.90;99.90;;;;;;5108262;29;20202;-70
2021/03/12 13:23:48;;;;;;;7.40;2.13;;;7.80;99.90;;;;;;5109975;29;20226;-71
2021/03/12 13:26:29;;;;;;;14.10;2.43;;;7.70;99.90;;;;;;5109669;28;20237;-72
2021/03/12 13:29:01;;;;;;;11.67;2.43;;;7.60;99.90;;;;;;5108281;29;20198;-71
2021/03/12 13:31:37;;;;;;;12.83;2.60;;;7.60;99.90;;;;;;5109099;29;20244;-72
2021/03/12 13:34:10;;;;;;;15.53;2.83;;;7.80;99.90;;;;;;5109109;29;20668;-74
2021/03/12 13:36:45;;;;;;;8.87;2.40;;;7.90;99.90;;;;;;5109250;29;20197;-70
2021/03/12 13:39:19;;;;;;;8.27;2.27;;;8.10;99.90;;;;;;5109049;29;20197;-71
2021/03/12 13:41:51;;;;;;;10.00;2.60;;;8.20;99.90;;;;;;5117797;28;20242;-70
2021/03/12 13:44:23;;;;;;;10.03;2.27;;;8.40;99.90;;;;;;5148713;28;20295;-73
2021/03/12 13:46:56;;;;;;;9.50;2.33;;;8.60;99.90;;;;;;5148784;28;20510;-72
2021/03/12 13:49:29;;;;;;;9.17;2.10;;;8.60;99.90;;;;;;5148671;28;20231;-70
2021/03/12 13:52:08;;;;;;;8.90;2.50;;;8.50;99.90;;;;;;5148824;28;20220;-75
2021/03/12 13:54:40;;;;;;;9.57;2.33;;;8.50;99.90;;;;;;5148560;28;20220;-76
2021/03/12 13:57:13;;;;;;;13.40;2.60;;;8.30;99.90;;;;;;5148619;28;20207;-70
2021/03/12 13:59:47;;;;;;;9.50;2.50;;;8.30;99.90;;;;;;5145720;28;20198;-75
2021/03/12 14:02:20;;;;;;;21.83;3.07;;;8.20;99.90;;;;;;5148556;28;20196;-74
2021/03/12 14:04:53;;;;;;;13.10;2.80;;;8.30;99.90;;;;;;5148117;28;20213;-73
2021/03/12 14:07:25;;;;;;;10.07;2.70;;;8.50;99.90;;;;;;5148209;28;20635;-73
2021/03/12 14:09:57;;;;;;;11.37;2.40;;;8.70;99.90;;;;;;5148236;28;20196;-73
2021/03/12 14:12:32;;;;;;;7.90;2.20;;;8.70;99.90;;;;;;5148183;28;20230;-76
2021/03/12 14:15:09;;;;;;;10.20;2.30;;;8.90;99.90;;;;;;5147005;28;20247;-75
2021/03/12 14:17:44;;;;;;;13.63;3.00;;;8.80;99.90;;;;;;5148407;28;20196;-73
2021/03/12 14:20:17;;;;;;;10.63;2.80;;;8.60;99.90;;;;;;5147961;28;20563;-72
2021/03/12 14:23:07;;;;;;;9.60;2.53;;;8.40;99.90;;;;;;5147575;28;20200;-73
2021/03/12 14:25:39;;;;;;;13.10;2.57;;;8.60;99.90;;;;;;5147943;28;20277;-72
2021/03/12 14:28:12;;;;;;;16.73;2.60;;;8.90;99.90;;;;;;5148047;28;20646;-74
2021/03/12 14:30:44;;;;;;;10.23;2.77;;;9.00;99.90;;;;;;5148080;28;20301;-75
2021/03/12 14:33:16;;;;;;;14.30;2.97;;;8.90;99.90;;;;;;5147077;28;20248;-74
2021/03/12 14:35:49;;;;;;;8.03;2.47;;;8.60;99.90;;;;;;5148112;28;20286;-74
2021/03/12 14:42:07;;;;;;;15.23;3.17;;;7.60;99.90;;;;;;5147482;28;20323;-73
2021/03/12 14:44:43;;;;;;;11.27;2.30;;;7.50;99.90;;;;;;5145160;28;20255;-74
2021/03/12 14:47:15;;;;;;;13.80;2.67;;;7.40;99.90;;;;;;5145976;28;20251;-74
2021/03/12 14:49:48;;;;;;;10.00;1.97;;;7.40;99.90;;;;;;5147138;28;20296;-73